Lysander, New York
Current Conditions -  °F | °C
As of 3:54 AM on Friday 28 Nov 2014 (Local Time) from KFZY Reporting Station
Broken Clouds Broken Clouds  
Wind Chill: 18°   Ceiling: 3400
Heat Index: 26°   Visibility: 10mi
Dew Point: 18°   Wind: 7mph
Humidity: 71%   Direction: 300°WNW
Pressure: 30.12"   Gusts: NA
Location:  43.1825°N, 76.3664°W
Report Text: KFZY 280854Z AUTO 30006KT 10SM BKN034 M03/M08 A3012 RMK AO2 SLP204 I3000 T10331078 51016
Loading
Personal Weather Stations






























Interactive Weather Map New forecast layout! Learn more

10-Day Weather Forecast

Advertisements
Track Severe Weather on mobile